Time;durP1;ratioP1;P1;durP2;ratioP2;P2;SDS_P1;SDS_P2;PMS_P1;PMS_P2;Temp;Humidity;BMP_temperature;BMP_pressure;BME280_temperature;BME280_humidity;BME280_pressure;Samples;Min_cycle;Max_cycle;Signal;HPM_P1;HPM_P2
2023/01/04 00:00:14;;;;;;;;;;;4.80;99.90;;;3.36;100.00;96934.47;10487367;28;3049;-80
2023/01/04 00:05:16;;;;;;;;;;;5.00;99.90;;;3.28;100.00;96932.00;10485841;28;3113;-76
2023/01/04 00:10:19;;;;;;;;;;;3.40;99.90;;;3.19;100.00;96924.22;10486469;28;3130;-78
2023/01/04 00:15:22;;;;;;;;;;;2.10;99.90;;;3.14;100.00;96921.31;10482573;28;3052;-78
2023/01/04 00:20:24;;;;;;;;;;;4.40;99.90;;;3.09;100.00;96918.44;10483317;28;3041;-79
2023/01/04 00:25:27;;;;;;;;;;;4.30;99.90;;;3.13;100.00;96913.56;10487766;28;3060;-78
2023/01/04 00:30:30;;;;;;;;;;;4.40;99.90;;;3.13;100.00;96910.91;10486373;28;3029;-77
2023/01/04 00:35:33;;;;;;;;;;;;;;;3.07;100.00;96909.03;10496037;28;3034;-78
2023/01/04 00:40:47;;;;;;;;;;;4.40;99.90;;;3.06;100.00;96910.88;10483870;28;2994;-78
2023/01/04 00:45:50;;;;;;;;;;;4.30;99.90;;;2.96;100.00;96910.41;10489594;28;2971;-78
2023/01/04 00:50:53;;;;;;;;;;;4.30;99.90;;;2.91;100.00;96910.19;10490641;28;3050;-78
2023/01/04 00:55:55;;;;;;;;;;;4.30;99.90;;;3.00;100.00;96897.56;10489476;28;3057;-79
2023/01/04 01:00:58;;;;;;;;;;;4.20;99.90;;;2.92;100.00;96891.38;10483102;28;3567;-78
2023/01/04 01:06:00;;;;;;;;;;;4.20;99.90;;;2.82;100.00;96882.16;10484102;28;3041;-79
2023/01/04 01:11:03;;;;;;;;;;;4.20;99.90;;;2.82;100.00;96882.16;10486607;28;3005;-79
2023/01/04 01:16:06;;;;;;;;;;;4.10;99.90;;;2.82;100.00;96896.25;10484833;28;3097;-79
2023/01/04 01:21:09;;;;;;;;;;;4.10;99.90;;;2.81;100.00;96888.50;10481498;28;3057;-78
2023/01/04 01:26:12;;;;;;;;;;;4.10;99.90;;;2.85;100.00;96887.06;10481520;28;2986;-78
2023/01/04 01:31:16;;;;;;;;;;;4.70;99.90;;;2.81;100.00;96899.13;10476552;28;3132;-78
2023/01/04 01:36:18;;;;;;;;;;;4.40;99.90;;;2.83;100.00;96897.09;10484781;28;3102;-78
2023/01/04 01:41:21;;;;;;;;;;;4.10;99.90;;;2.81;100.00;96907.91;10475558;28;3104;-78
2023/01/04 01:46:24;;;;;;;;;;;4.00;99.90;;;2.91;100.00;96915.50;10495439;28;3050;-79
2023/01/04 01:51:27;;;;;;;;;;;4.30;99.90;;;2.86;100.00;96901.97;10489919;28;3045;-78
2023/01/04 01:56:29;;;;;;;;;;;4.10;99.90;;;2.82;100.00;96912.19;10488672;28;3056;-77
2023/01/04 02:01:32;;;;;;;;;;;4.10;99.90;;;2.87;100.00;96915.09;10495002;28;3080;-77
2023/01/04 02:06:35;;;;;;;;;;;4.20;99.90;;;2.91;100.00;96918.16;10509029;28;3045;-78
2023/01/04 02:11:38;;;;;;;;;;;4.10;99.90;;;2.90;100.00;96914.69;10533643;28;2955;-77
2023/01/04 02:16:40;;;;;;;;;;;4.10;99.90;;;2.89;100.00;96906.91;10531618;28;2976;-79
2023/01/04 02:21:43;;;;;;;;;;;4.00;99.90;;;2.88;100.00;96915.91;10523827;28;3057;-78
2023/01/04 02:26:46;;;;;;;;;;;4.00;99.90;;;2.86;100.00;96916.09;10501839;28;2990;-78
2023/01/04 02:31:48;;;;;;;;;;;4.00;99.90;;;3.05;100.00;96895.94;10486755;28;3013;-79
2023/01/04 02:36:51;;;;;;;;;;;3.90;99.90;;;3.16;100.00;96887.41;10478962;28;3049;-78
2023/01/04 02:41:55;;;;;;;;;;;4.10;99.90;;;3.33;100.00;96895.03;10480954;28;2974;-78
2023/01/04 02:46:57;;;;;;;;;;;4.30;99.90;;;3.52;100.00;96897.72;10488815;28;3070;-77
2023/01/04 02:52:00;;;;;;;;;;;4.50;99.90;;;3.62;100.00;96897.31;10506107;28;2903;-79
2023/01/04 02:57:03;;;;;;;;;;;4.60;99.90;;;3.72;100.00;96884.47;10489574;28;3197;-76
2023/01/04 03:07:28;;;;;;;;;;;4.80;99.90;;;3.90;100.00;96862.59;10508773;28;2986;-77
2023/01/04 03:12:34;;;;;;;;;;;4.90;99.90;;;3.89;100.00;96860.13;10486369;28;3049;-79
2023/01/04 03:17:37;;;;;;;;;;;4.90;99.90;;;3.92;100.00;96862.38;10492490;28;2963;-78
2023/01/04 03:49:22;;;;;;;;;;;4.60;99.90;;;3.07;100.00;96840.78;10484877;28;2990;-78
2023/01/04 03:54:25;;;;;;;;;;;4.60;99.90;;;3.07;100.00;96840.78;10493684;28;3033;-77
2023/01/04 03:59:28;;;;;;;;;;;4.30;99.90;;;3.16;100.00;96826.28;10491276;28;3065;-78
2023/01/04 04:09:51;;;;;;;;;;;4.30;99.90;;;2.95;100.00;96811.31;10503937;28;2985;-77
2023/01/04 04:14:53;;;;;;;;;;;4.30;99.90;;;2.89;100.00;96812.13;10488922;28;3053;-77
2023/01/04 04:19:56;;;;;;;;;;;4.20;99.90;;;2.97;100.00;96809.28;10489766;28;3081;-76
2023/01/04 04:24:58;;;;;;;;;;;4.20;99.90;;;2.85;100.00;96815.38;10483303;28;3418;-78
2023/01/04 04:30:02;;;;;;;;;;;4.20;99.90;;;2.76;100.00;96809.44;10490808;28;2994;-78
2023/01/04 04:35:05;;;;;;;;;;;4.10;99.90;;;2.84;100.00;96811.91;10489776;28;3079;-79
2023/01/04 04:41:37;;;;;;;;;;;4.10;99.90;;;2.80;100.00;96796.56;10487343;28;3135;-79
2023/01/04 04:45:31;;;;;;;;;;;4.10;99.90;;;2.80;100.00;96794.75;10487987;28;3010;-79
2023/01/04 04:50:34;;;;;;;;;;;4.10;99.90;;;2.84;100.00;96781.88;10488699;28;3104;-77
2023/01/04 04:55:36;;;;;;;;;;;4.10;99.90;;;2.79;100.00;96785.13;10490291;28;3046;-78
2023/01/04 05:00:39;;;;;;;;;;;4.10;99.90;;;2.74;100.00;96768.19;10478726;28;3115;-78
2023/01/04 05:05:42;;;;;;;;;;;4.10;99.90;;;2.75;100.00;96775.13;10486328;28;3073;-78
2023/01/04 05:10:44;;;;;;;;;;;4.00;99.90;;;2.66;100.00;96774.47;10485851;28;2926;-79
2023/01/04 05:15:47;;;;;;;;;;;4.00;99.90;;;2.67;100.00;96776.09;10486522;28;2991;-79
2023/01/04 05:20:50;;;;;;;;;;;3.90;99.90;;;2.64;100.00;96781.81;10484592;28;3052;-77
2023/01/04 05:25:52;;;;;;;;;;;4.00;99.90;;;2.57;100.00;96781.78;10485983;28;3053;-75
2023/01/04 05:30:56;;;;;;;;;;;3.80;99.90;;;2.60;100.00;96786.69;10465974;28;3096;-78
2023/01/04 05:35:58;;;;;;;;;;;3.90;99.90;;;2.57;100.00;96781.78;10483258;28;3169;-79
2023/01/04 05:41:01;;;;;;;;;;;3.80;99.90;;;2.53;100.00;96775.22;10481269;28;3065;-78
2023/01/04 05:46:06;;;;;;;;;;;3.50;99.90;;;2.51;100.00;96785.22;10489416;28;3031;-77
2023/01/04 05:51:09;;;;;;;;;;;3.90;99.90;;;2.64;100.00;96781.81;10494713;28;2986;-77
2023/01/04 05:56:12;;;;;;;;;;;3.90;99.90;;;2.62;100.00;96787.31;10488591;28;3116;-76
2023/01/04 06:01:15;;;;;;;;;;;3.90;99.90;;;2.68;100.00;96783.06;10478551;28;3006;-76
2023/01/04 06:06:18;;;;;;;;;;;3.90;99.90;;;2.78;100.00;96790.63;10485650;28;3165;-77
2023/01/04 06:11:20;;;;;;;;;;;3.90;99.90;;;2.82;100.00;96783.91;10477380;28;3061;-79
2023/01/04 06:16:29;;;;;;;;;;;4.10;99.90;;;3.10;100.00;96800.53;10491033;28;3057;-78
2023/01/04 06:21:32;;;;;;;;;;;4.10;99.90;;;3.32;100.00;96805.69;10498060;28;3052;-78
2023/01/04 06:26:34;;;;;;;;;;;4.30;99.90;;;3.51;100.00;96803.03;10498205;28;3115;-77
2023/01/04 06:31:37;;;;;;;;;;;4.50;99.90;;;3.72;100.00;96796.69;10493316;28;2935;-79
2023/01/04 06:36:40;;;;;;;;;;;4.70;99.90;;;3.81;100.00;96791.97;10491496;28;3059;-77
2023/01/04 06:41:42;;;;;;;;;;;4.80;99.90;;;3.79;100.00;96778.91;10496525;28;3009;-77
2023/01/04 06:46:45;;;;;;;;;;;4.90;99.90;;;3.79;100.00;96775.41;10496390;28;2991;-76
2023/01/04 06:51:48;;;;;;;;;;;4.90;99.90;;;3.72;100.00;96762.13;10494401;28;3085;-78
2023/01/04 06:56:50;;;;;;;;;;;4.90;99.90;;;3.59;100.00;96759.47;10491637;28;3050;-77
2023/01/04 07:01:53;;;;;;;;;;;4.80;99.90;;;3.46;100.00;96751.50;10487011;28;3057;-77
2023/01/04 07:06:57;;;;;;;;;;;4.80;99.90;;;3.41;100.00;96756.63;10493231;28;3025;-78
2023/01/04 07:12:00;;;;;;;;;;;4.70;99.90;;;3.32;100.00;96761.31;10492544;28;3069;-77
2023/01/04 07:17:02;;;;;;;;;;;4.60;99.90;;;3.34;100.00;96758.47;10502372;28;3033;-76
2023/01/04 07:22:05;;;;;;;;;;;4.60;99.90;;;3.27;100.00;96761.13;10500727;28;3006;-77
2023/01/04 07:27:08;;;;;;;;;;;4.60;99.90;;;3.30;100.00;96760.69;10501361;28;3029;-78
2023/01/04 07:32:11;;;;;;;;;;;4.50;99.90;;;3.34;100.00;96751.31;10497864;28;3469;-78
2023/01/04 07:37:16;;;;;;;;;;;4.50;99.90;;;3.46;100.00;96765.63;10496023;28;2900;-79
2023/01/04 07:42:20;;;;;;;;;;;4.60;99.90;;;3.51;100.00;96770.34;10493140;28;2930;-81
2023/01/04 07:47:23;;;;;;;;;;;4.70;99.90;;;3.64;100.00;96762.34;10498723;28;2973;-83
2023/01/04 07:52:27;;;;;;;;;;;4.80;99.90;;;3.70;100.00;96744.75;10501580;28;3075;-79
2023/01/04 07:57:29;;;;;;;;;;;4.80;99.90;;;3.79;100.00;96727.56;10501693;28;3057;-79
2023/01/04 08:02:32;;;;;;;;;;;4.90;99.90;;;3.89;100.00;96727.94;10500633;28;3005;-76
2023/01/04 08:07:35;;;;;;;;;;;5.00;99.90;;;4.01;100.00;96715.66;10494576;28;3236;-74
2023/01/04 08:12:37;;;;;;;;;;;5.10;99.90;;;4.10;100.00;96712.75;10494958;28;3060;-73
2023/01/04 08:17:40;;;;;;;;;;;5.10;99.90;;;4.15;100.00;96715.59;10492545;28;3019;-75
2023/01/04 08:22:42;;;;;;;;;;;5.20;99.90;;;4.22;100.00;96717.22;10500537;28;3138;-74
2023/01/04 08:27:45;;;;;;;;;;;5.30;99.90;;;4.31;100.00;96715.94;10493210;28;3011;-78
2023/01/04 08:32:49;;;;;;;;;;;5.40;99.90;;;4.46;100.00;96717.53;10505691;28;2982;-73
2023/01/04 08:37:52;;;;;;;;;;;5.50;99.90;;;4.72;100.00;96709.41;10499733;28;3014;-73
2023/01/04 08:42:55;;;;;;;;;;;5.60;99.90;;;5.05;100.00;96717.19;10490523;28;3070;-77
2023/01/04 08:47:58;;;;;;;;;;;5.90;99.90;;;5.39;100.00;96712.41;10513055;28;3383;-78
2023/01/04 08:53:00;;;;;;;;;;;6.10;99.90;;;5.58;100.00;96706.09;10501416;28;3400;-78
2023/01/04 08:58:04;;;;;;;;;;;6.40;99.90;;;5.62;100.00;96701.16;10495316;28;3066;-77
2023/01/04 09:03:06;;;;;;;;;;;6.60;99.90;;;5.70;100.00;96695.53;10490419;28;3067;-77
2023/01/04 09:08:09;;;;;;;;;;;6.70;99.90;;;5.65;100.00;96690.03;10492107;28;2991;-76
2023/01/04 09:13:12;;;;;;;;;;;6.70;99.90;;;5.68;100.00;96689.59;10487833;28;3038;-75
2023/01/04 09:18:18;;;;;;;;;;;6.70;99.90;;;5.90;100.00;96677.47;10490283;28;3068;-83
2023/01/04 09:23:33;;;;;;;;;;;6.80;99.90;;;6.15;100.00;96684.63;10489400;28;3077;-76
2023/01/04 09:28:36;;;;;;;;;;;7.00;99.90;;;6.33;100.00;96679.25;10483552;28;3001;-79
2023/01/04 09:33:39;;;;;;;;;;;7.10;99.90;;;6.57;100.00;96671.38;10492872;28;3049;-78
2023/01/04 09:39:02;;;;;;;;;;;7.40;99.90;;;6.97;100.00;96676.97;10491454;28;3074;-77
2023/01/04 09:44:05;;;;;;;;;;;7.70;99.90;;;7.36;100.00;96669.34;10492240;28;1964;-75
2023/01/04 09:49:07;;;;;;;;;;;7.90;99.90;;;7.52;100.00;96657.97;10485038;28;3160;-79
2023/01/04 09:54:11;;;;;;;;;;;8.20;99.90;;;7.77;100.00;96655.06;10490579;28;3096;-78
2023/01/04 09:59:13;;;;;;;;;;;8.50;99.90;;;7.94;100.00;96653.28;10483774;28;3073;-76
2023/01/04 10:04:16;;;;;;;;;;;8.70;99.90;;;7.94;100.00;96647.94;10476429;28;3064;-76
2023/01/04 10:09:19;;;;;;;;;;;8.80;99.90;;;8.25;100.00;96643.22;10487360;28;3132;-75
2023/01/04 10:14:21;;;;;;;;;;;9.00;99.90;;;8.35;100.00;96636.22;10479238;28;2983;-76
2023/01/04 10:19:24;;;;;;;;;;;9.10;99.90;;;8.62;100.00;96625.75;10485685;28;3055;-78
2023/01/04 10:24:47;;;;;;;;;;;9.30;99.90;;;8.93;100.00;96620.94;10489394;28;3053;-76
2023/01/04 10:29:49;;;;;;;;;;;9.60;99.90;;;9.31;100.00;96603.31;10477321;28;3080;-76
2023/01/04 10:34:52;;;;;;;;;;;9.90;99.90;;;9.51;100.00;96595.56;10488966;28;3001;-76
2023/01/04 10:39:56;;;;;;;;;;;10.10;99.90;;;9.70;100.00;96586.16;10488574;28;3182;-80
2023/01/04 10:44:58;;;;;;;;;;;10.30;99.90;;;9.56;100.00;96576.03;10488218;28;3098;-77
2023/01/04 10:50:10;;;;;;;;;;;10.40;99.90;;;9.37;100.00;96562.06;10489350;28;3045;-77
2023/01/04 10:55:12;;;;;;;;;;;10.30;99.90;;;9.14;100.00;96566.56;10484563;28;3070;-79
2023/01/04 11:00:17;;;;;;;;;;;10.10;99.90;;;8.81;100.00;96561.19;10484489;28;3052;-75
2023/01/04 11:05:20;;;;;;;;;;;9.90;99.90;;;8.69;100.00;96539.00;10468846;28;3013;-73
2023/01/04 11:10:23;;;;;;;;;;;9.70;99.90;;;8.64;100.00;96540.53;10489815;28;3042;-74
2023/01/04 11:15:25;;;;;;;;;;;9.60;99.90;;;8.75;100.00;96533.50;10492028;28;2997;-75
2023/01/04 11:20:28;;;;;;;;;;;9.70;99.90;;;8.93;100.00;96527.09;10490091;28;3057;-74
2023/01/04 11:25:38;;;;;;;;;;;9.80;99.90;;;8.85;100.00;96525.63;10485722;28;3081;-74
2023/01/04 11:30:41;;;;;;;;;;;9.80;99.90;;;9.05;100.00;96511.72;10491926;28;3002;-75
2023/01/04 11:35:48;;;;;;;;;;;9.90;99.90;;;9.05;100.00;96506.34;10488928;28;3047;-79
2023/01/04 11:40:50;;;;;;;;;;;10.00;99.90;;;9.07;100.00;96524.88;10503091;28;3019;-77
2023/01/04 11:45:53;;;;;;;;;;;10.00;99.90;;;9.13;100.00;96507.81;10498043;28;3076;-77
2023/01/04 11:50:56;;;;;;;;;;;10.00;99.90;;;9.19;100.00;96509.50;10496701;28;2975;-77
2023/01/04 11:55:59;;;;;;;;;;;10.10;99.90;;;9.43;100.00;96480.59;10494117;28;3086;-78
2023/01/04 12:01:02;;;;;;;;;;;10.20;99.90;;;9.50;100.00;96491.94;10498111;28;3062;-81
2023/01/04 12:06:04;;;;;;;;;;;10.30;99.90;;;9.57;100.00;96481.84;10490307;28;3038;-79
2023/01/04 12:11:07;;;;;;;;;;;10.50;99.90;;;9.59;100.00;96474.34;10485473;28;3101;-76
2023/01/04 12:16:10;;;;;;;;;;;10.50;99.90;;;9.74;100.00;96461.13;10486560;28;3030;-78
2023/01/04 12:21:12;;;;;;;;;;;10.50;99.90;;;9.75;100.00;96443.13;10491503;28;3129;-78
2023/01/04 12:26:15;;;;;;;;;;;10.60;99.90;;;9.59;100.00;96442.13;10472600;28;3154;-78
2023/01/04 12:31:17;;;;;;;;;;;10.60;99.90;;;9.46;100.00;96447.88;10487778;28;3109;-78
2023/01/04 12:36:23;;;;;;;;;;;10.50;99.90;;;9.52;100.00;96438.81;10487768;28;2774;-78
2023/01/04 12:41:27;;;;;;;;;;;10.50;99.90;;;9.64;100.00;96427.97;10492757;28;2638;-78
2023/01/04 12:51:53;;;;;;;;;;;10.60;99.90;;;9.73;100.00;96399.59;10489468;28;2856;-77
2023/01/04 12:57:27;;;;;;;;;;;10.70;99.90;;;9.75;100.00;96400.16;10491603;28;2761;-77
2023/01/04 13:02:42;;;;;;;;;;;10.70;99.90;;;9.80;97.30;96399.38;10490142;28;2712;-79
2023/01/04 13:07:48;;;;;;;;;;;10.70;99.90;;;9.96;93.26;96396.59;10490769;28;2794;-78
2023/01/04 13:12:59;;;;;;;;;;;10.80;99.90;;;10.02;90.19;96402.84;10487961;28;2776;-77
2023/01/04 13:23:23;;;;;;;;;;;11.00;99.90;;;10.11;85.34;96406.69;10491067;28;2785;-77
2023/01/04 13:28:29;;;;;;;;;;;11.00;99.90;;;10.15;88.08;96405.13;10465815;28;2776;-76
2023/01/04 13:33:33;;;;;;;;;;;11.00;99.90;;;9.97;84.13;96390.16;10489554;28;2939;-78
2023/01/04 13:38:41;;;;;;;;;;;11.00;99.90;;;9.99;82.40;96387.25;10482120;28;2100;-77
2023/01/04 13:43:52;;;;;;;;;;;10.90;99.90;;;9.88;83.07;96385.53;10494406;28;2778;-76
2023/01/04 13:48:58;;;;;;;;;;;10.90;99.90;;;9.92;81.10;96375.88;10471124;28;2693;-75
2023/01/04 13:54:11;;;;;;;;;;;10.90;99.90;;;9.83;79.03;96383.59;10513628;28;1966;-82
2023/01/04 14:04:41;;;;;;;;;;;10.80;99.90;;;9.82;75.98;96365.06;10474116;28;2712;-78
2023/01/04 14:09:48;;;;;;;;;;;10.80;99.90;;;9.83;75.64;96370.16;10496601;28;2693;-76
2023/01/04 14:14:54;;;;;;;;;;;10.80;99.90;;;9.79;73.40;96378.97;10491178;28;2712;-78
2023/01/04 14:20:04;;;;;;;;;;;10.80;99.90;;;9.78;71.28;96369.31;10477079;28;2778;-78
2023/01/04 14:25:17;;;;;;;;;;;10.80;99.90;;;9.78;72.49;96372.00;10516401;28;2744;-74
2023/01/04 14:30:24;;;;;;;;;;;10.80;99.90;;;9.79;73.12;96370.94;10523858;28;2563;-79
2023/01/04 14:35:32;;;;;;;;;;;10.80;99.90;;;9.79;72.76;96370.94;10534789;28;2713;-77
2023/01/04 14:40:54;;;;;;;;;;;10.80;99.90;;;9.70;74.64;96349.91;10528000;28;2613;-81
2023/01/04 14:46:04;;;;;;;;;;;10.80;99.90;;;9.70;70.79;96346.41;10521773;28;2689;-81
2023/01/04 14:51:14;;;;;;;;;;;10.70;99.90;;;9.63;73.88;96346.63;10482013;28;2885;-80
2023/01/04 14:56:25;;;;;;;;;;;10.70;99.90;;;9.63;73.69;96327.03;10494754;28;2691;-79
2023/01/04 15:01:34;;;;;;;;;;;10.70;99.90;;;9.59;72.77;96318.66;10499379;28;2709;-77
2023/01/04 15:07:00;;;;;;;;;;;10.70;99.90;;;9.60;74.02;96296.13;10493390;28;2748;-75
2023/01/04 15:12:09;;;;;;;;;;;10.60;99.90;;;9.48;76.19;96300.84;10490794;28;2946;-76
2023/01/04 15:17:15;;;;;;;;;;;10.60;99.90;;;9.35;79.91;96301.22;10480924;28;2760;-78
2023/01/04 15:22:35;;;;;;;;;;;10.50;99.90;;;9.29;82.17;96302.25;10472851;28;2756;-75
2023/01/04 15:27:42;;;;;;;;;;;10.40;99.90;;;9.23;84.55;96293.34;10465311;28;2961;-77
2023/01/04 15:32:50;;;;;;;;;;;10.40;99.90;;;9.22;87.57;96297.06;10486997;28;2776;-74
2023/01/04 15:37:59;;;;;;;;;;;10.40;99.90;;;9.26;92.20;96305.44;10492482;28;2739;-79
2023/01/04 15:43:09;;;;;;;;;;;10.30;99.90;;;9.34;93.30;96299.63;10491360;28;2720;-77
2023/01/04 15:48:22;;;;;;;;;;;10.30;99.90;;;9.25;98.06;96290.41;10493254;28;2767;-77
2023/01/04 15:53:33;;;;;;;;;;;10.40;99.90;;;9.17;100.00;96292.50;10486264;28;2688;-77
2023/01/04 15:58:41;;;;;;;;;;;10.30;99.90;;;9.08;100.00;96301.22;10487137;28;2730;-76
2023/01/04 16:03:49;;;;;;;;;;;10.20;99.90;;;9.01;100.00;96303.28;10486513;28;2764;-76
2023/01/04 16:09:00;;;;;;;;;;;10.20;99.90;;;9.02;100.00;96281.56;10474628;28;2903;-76
2023/01/04 16:14:05;;;;;;;;;;;10.10;99.90;;;8.92;100.00;96292.19;10490316;28;2761;-76
2023/01/04 16:19:23;;;;;;;;;;;10.10;99.90;;;8.86;100.00;96283.28;10483846;28;2741;-75
2023/01/04 16:24:28;;;;;;;;;;;10.00;99.90;;;8.91;100.00;96282.53;10475998;28;2816;-75
2023/01/04 16:29:54;;;;;;;;;;;10.00;99.90;;;9.02;100.00;96260.13;10480527;28;2727;-76
2023/01/04 16:35:00;;;;;;;;;;;10.10;99.90;;;9.01;100.00;96295.25;10474833;28;2704;-75
2023/01/04 16:40:21;;;;;;;;;;;10.10;99.90;;;9.04;100.00;96292.06;10476206;28;2911;-73
2023/01/04 16:45:25;;;;;;;;;;;10.10;99.90;;;8.99;100.00;96292.81;10484402;28;2775;-75
2023/01/04 16:50:32;;;;;;;;;;;10.10;99.90;;;8.97;100.00;96288.75;10486280;28;2780;-74
2023/01/04 17:01:16;;;;;;;;;;;10.00;99.90;;;8.94;100.00;96300.78;10487397;28;2718;-77
2023/01/04 17:06:26;;;;;;;;;;;10.00;99.90;;;8.80;100.00;96294.19;10488040;28;2686;-77
2023/01/04 17:11:38;;;;;;;;;;;10.00;99.90;;;8.89;100.00;96298.03;10488361;28;2732;-77
2023/01/04 17:17:09;;;;;;;;;;;9.90;99.90;;;8.92;100.00;96301.03;10486558;28;2700;-77
2023/01/04 17:22:17;;;;;;;;;;;10.00;99.90;;;8.87;100.00;96310.91;10484618;28;2856;-78
2023/01/04 17:27:31;;;;;;;;;;;10.00;99.90;;;8.84;100.00;96303.34;10480505;28;2756;-76
2023/01/04 17:38:11;;;;;;;;;;;9.90;99.90;;;8.84;100.00;96279.22;10480092;28;2793;-78
2023/01/04 17:43:19;;;;;;;;;;;9.90;99.90;;;8.91;100.00;96279.84;10478914;28;2900;-78
2023/01/04 17:48:27;;;;;;;;;;;9.90;99.90;;;8.80;100.00;96268.19;10484909;28;2753;-77
2023/01/04 17:54:05;;;;;;;;;;;9.90;99.90;;;8.77;100.00;96273.22;10475601;28;2758;-76
2023/01/04 17:59:15;;;;;;;;;;;9.80;99.90;;;8.71;100.00;96266.19;10480471;28;2768;-77
2023/01/04 18:04:20;;;;;;;;;;;9.80;99.90;;;8.61;100.00;96285.66;10474365;28;2804;-77
2023/01/04 18:14:50;;;;;;;;;;;9.70;99.90;;;8.67;100.00;96257.84;10478445;28;2764;-76
2023/01/04 18:20:03;;;;;;;;;;;9.70;99.90;;;8.75;100.00;96268.13;10481282;28;2844;-78
2023/01/04 18:30:32;;;;;;;;;;;9.80;99.90;;;8.76;100.00;96261.69;10458372;28;2760;-76
2023/01/04 18:35:35;;;;;;;;;;;9.80;99.90;;;8.72;100.00;96262.47;10457573;28;2830;-76
2023/01/04 18:40:37;;;;;;;;;;;9.80;99.90;;;8.64;100.00;96253.78;10487356;28;2762;-77
2023/01/04 18:45:40;;;;;;;;;;;9.80;99.90;;;8.66;100.00;96240.97;10457732;28;2724;-77
2023/01/04 18:50:46;;;;;;;;;;;9.80;99.90;;;8.70;100.00;96243.13;10451126;28;2829;-77
2023/01/04 18:55:49;;;;;;;;;;;9.80;99.90;;;8.75;100.00;96217.19;10464419;28;2825;-77
2023/01/04 19:00:51;;;;;;;;;;;9.80;99.90;;;8.81;100.00;96223.44;10456305;28;2698;-76
2023/01/04 19:05:54;;;;;;;;;;;9.80;99.90;;;8.83;100.00;96216.75;10459158;28;2722;-75
2023/01/04 19:10:57;;;;;;;;;;;9.80;99.90;;;8.83;100.00;96213.25;10459920;28;2784;-78
2023/01/04 19:15:59;;;;;;;;;;;9.90;99.90;;;8.85;100.00;96205.78;10461163;28;2848;-78
2023/01/04 19:21:02;;;;;;;;;;;9.90;99.90;;;8.96;100.00;96204.00;10451799;28;2748;-78
2023/01/04 19:26:04;;;;;;;;;;;10.00;99.90;;;8.92;100.00;96199.16;10456893;28;2768;-78
2023/01/04 19:31:07;;;;;;;;;;;10.00;99.90;;;8.89;100.00;96182.75;10453960;28;2713;-76
2023/01/04 19:36:10;;;;;;;;;;;10.00;99.90;;;8.92;100.00;96188.44;10454506;28;2815;-76
2023/01/04 19:41:13;;;;;;;;;;;10.00;99.90;;;8.93;100.00;96165.13;10433426;28;2781;-76
2023/01/04 19:46:17;;;;;;;;;;;10.00;99.90;;;8.91;100.00;96172.63;10441046;28;2892;-79
2023/01/04 19:51:20;;;;;;;;;;;10.00;99.90;;;8.98;100.00;96164.38;10431857;28;2821;-76
2023/01/04 19:56:22;;;;;;;;;;;10.00;99.90;;;8.94;100.00;96162.19;10444129;28;2841;-76
2023/01/04 20:01:25;;;;;;;;;;;10.00;99.90;;;9.02;100.00;96171.63;10441178;28;2710;-77
2023/01/04 20:06:28;;;;;;;;;;;10.00;99.90;;;9.09;100.00;96153.47;10431865;28;2829;-76
2023/01/04 20:11:31;;;;;;;;;;;10.10;99.90;;;9.30;100.00;96164.38;10440153;28;2728;-77
2023/01/04 20:16:33;;;;;;;;;;;10.20;99.90;;;9.42;100.00;96163.16;10433629;28;2756;-78
2023/01/04 20:21:36;;;;;;;;;;;10.40;99.90;;;9.50;100.00;96164.53;10444978;28;2722;-77
2023/01/04 20:26:39;;;;;;;;;;;10.50;99.90;;;9.61;100.00;96166.25;10434912;28;2869;-78
2023/01/04 20:31:41;;;;;;;;;;;10.60;99.90;;;9.63;100.00;96171.34;10437105;28;2885;-78
2023/01/04 20:36:47;;;;;;;;;;;10.60;99.90;;;9.71;100.00;96171.66;10440122;28;3094;-79
2023/01/04 20:47:10;;;;;;;;;;;10.70;99.90;;;9.80;100.00;96168.50;10436775;28;2848;-77
2023/01/04 20:52:13;;;;;;;;;;;10.80;99.90;;;9.91;100.00;96179.03;10427575;28;2842;-77
2023/01/04 20:57:16;;;;;;;;;;;10.90;99.90;;;9.94;100.00;96177.72;10434078;28;2760;-77
2023/01/04 21:02:19;;;;;;;;;;;10.90;99.90;;;10.02;100.00;96167.28;10431682;28;2700;-77
2023/01/04 21:07:22;;;;;;;;;;;11.00;99.90;;;10.06;100.00;96164.91;10433759;28;2786;-74
2023/01/04 21:12:24;;;;;;;;;;;11.00;99.90;;;10.19;100.00;96167.13;10437845;28;2815;-76
2023/01/04 21:17:27;;;;;;;;;;;11.10;99.90;;;10.15;100.00;96166.03;10434062;28;2758;-77
2023/01/04 21:22:30;;;;;;;;;;;11.20;99.90;;;10.15;100.00;96167.91;10430655;28;2852;-76
2023/01/04 21:27:32;;;;;;;;;;;11.10;99.90;;;10.24;100.00;96155.59;10431579;28;2736;-76
2023/01/04 21:32:35;;;;;;;;;;;11.20;99.90;;;10.06;100.00;96135.38;10435672;28;3075;-77
2023/01/04 21:37:38;;;;;;;;;;;11.20;99.90;;;9.88;100.00;96122.38;10435934;28;2717;-76
2023/01/04 21:42:41;;;;;;;;;;;11.00;99.90;;;9.52;100.00;96173.13;10434270;28;2786;-75
2023/01/04 21:47:44;;;;;;;;;;;10.70;99.90;;;9.24;100.00;96165.41;10428418;28;2749;-74
2023/01/04 21:52:47;;;;;;;;;;;10.10;99.90;;;9.01;100.00;96172.69;10425445;28;3130;-77
2023/01/04 21:57:50;;;;;;;;;;;10.10;99.90;;;8.78;100.00;96172.97;10421793;28;2834;-76
2023/01/04 22:02:53;;;;;;;;;;;9.80;99.90;;;8.67;100.00;96185.50;10431359;28;2763;-77
2023/01/04 22:07:56;;;;;;;;;;;9.70;99.90;;;8.51;100.00;96189.84;10418035;28;2750;-75
2023/01/04 22:12:59;;;;;;;;;;;9.60;99.90;;;8.41;100.00;96205.00;10423310;28;2817;-73
2023/01/04 22:18:01;;;;;;;;;;;9.40;99.90;;;8.32;100.00;96196.53;10425908;28;2808;-73
2023/01/04 22:23:04;;;;;;;;;;;9.30;99.90;;;8.24;100.00;96205.81;10430574;28;2747;-74
2023/01/04 22:28:07;;;;;;;;;;;9.10;99.90;;;8.15;100.00;96201.16;10437812;28;2790;-74
2023/01/04 22:33:09;;;;;;;;;;;9.10;99.90;;;8.16;100.00;96208.94;10430216;28;3098;-75
2023/01/04 22:38:12;;;;;;;;;;;9.10;99.90;;;8.08;100.00;96209.38;10434700;28;2722;-75
2023/01/04 22:43:15;;;;;;;;;;;9.00;99.90;;;8.02;100.00;96203.13;10432719;28;2891;-74
2023/01/04 22:48:17;;;;;;;;;;;9.00;99.90;;;8.06;100.00;96208.78;10429299;28;2777;-75
2023/01/04 22:53:20;;;;;;;;;;;9.00;99.90;;;8.08;100.00;96222.75;10423982;28;2764;-74
2023/01/04 22:58:23;;;;;;;;;;;9.00;99.90;;;8.12;100.00;96219.31;10432502;28;2817;-75
2023/01/04 23:03:26;;;;;;;;;;;9.00;99.90;;;8.21;100.00;96221.59;10430110;28;2753;-74
2023/01/04 23:08:29;;;;;;;;;;;9.10;99.90;;;8.30;100.00;96225.47;10420305;28;2698;-73
2023/01/04 23:13:31;;;;;;;;;;;9.20;99.90;;;8.40;100.00;96212.25;10430149;28;2745;-74
2023/01/04 23:18:34;;;;;;;;;;;9.30;99.90;;;8.55;100.00;96174.91;10431287;28;2685;-73
2023/01/04 23:23:37;;;;;;;;;;;9.40;99.90;;;8.65;100.00;96169.66;10430629;28;2841;-75
2023/01/04 23:28:40;;;;;;;;;;;9.50;99.90;;;8.69;100.00;96148.50;10424356;28;2812;-73
2023/01/04 23:33:43;;;;;;;;;;;9.60;99.90;;;8.77;100.00;96136.53;10421255;28;2698;-74
2023/01/04 23:38:46;;;;;;;;;;;9.60;99.90;;;8.85;100.00;96144.94;10435070;28;2765;-75
2023/01/04 23:43:48;;;;;;;;;;;9.70;99.90;;;8.95;100.00;96146.91;10423946;28;2716;-74
2023/01/04 23:48:51;;;;;;;;;;;9.80;99.90;;;9.00;100.00;96144.28;10424939;28;2745;-74
2023/01/04 23:53:54;;;;;;;;;;;9.90;99.90;;;9.02;100.00;96146.69;10423151;28;2864;-74
2023/01/04 23:58:56;;;;;;;;;;;9.80;99.90;;;9.02;100.00;96138.66;10427121;28;2725;-75
